<?xml version="1.0" encoding="UTF-8" standalone="no" ?>
<gpx xmlns="http://www.topografix.com/GPX/1/1" xmlns:xsi="http://www.w3.org/2001/XMLSchema-instance" xsi:schemaLocation="http://www.topografix.com/GPX/1/1 http://www.topografix.com/GPX/1/1/gpx.xsd" version="1.1" creator="VisuGPX - https://www.visugpx.com">
  <metadata>
    <name>ND de la Verne</name>
    <desc><![CDATA[promenade autour de ND de La Verne]]></desc>
  </metadata>
  <trk>
    <name><![CDATA[verne8]]></name>
    <trkseg>
      <trkpt lat="43.2379" lon="6.39659">
        <ele>422.3</ele>
      </trkpt>
      <trkpt lat="43.23774" lon="6.3971">
        <ele>415</ele>
      </trkpt>
      <trkpt lat="43.23744" lon="6.3971">
        <ele>431</ele>
      </trkpt>
      <trkpt lat="43.23709" lon="6.39749">
        <ele>431</ele>
      </trkpt>
      <trkpt lat="43.23664" lon="6.39791">
        <ele>426</ele>
      </trkpt>
      <trkpt lat="43.23634" lon="6.3982">
        <ele>423</ele>
      </trkpt>
      <trkpt lat="43.23589" lon="6.39877">
        <ele>405</ele>
      </trkpt>
      <trkpt lat="43.23565" lon="6.39864">
        <ele>415</ele>
      </trkpt>
      <trkpt lat="43.23511" lon="6.39812">
        <ele>429</ele>
      </trkpt>
      <trkpt lat="43.23487" lon="6.39787">
        <ele>437</ele>
      </trkpt>
      <trkpt lat="43.23469" lon="6.39814">
        <ele>436</ele>
      </trkpt>
      <trkpt lat="43.23483" lon="6.39862">
        <ele>427</ele>
      </trkpt>
      <trkpt lat="43.23455" lon="6.39901">
        <ele>431</ele>
      </trkpt>
      <trkpt lat="43.23445" lon="6.39955">
        <ele>434</ele>
      </trkpt>
      <trkpt lat="43.23475" lon="6.40024">
        <ele>433</ele>
      </trkpt>
      <trkpt lat="43.235" lon="6.40088">
        <ele>428</ele>
      </trkpt>
      <trkpt lat="43.23496" lon="6.40147">
        <ele>424.9</ele>
      </trkpt>
      <trkpt lat="43.23482" lon="6.40154">
        <ele>400</ele>
        <time>2019-11-06T09:07:33.183Z</time>
      </trkpt>
      <trkpt lat="43.2337" lon="6.40186">
        <ele>419</ele>
        <time>2019-11-06T09:10:05.109Z</time>
      </trkpt>
      <trkpt lat="43.23341" lon="6.40258">
        <ele>425</ele>
        <time>2019-11-06T09:11:25.318Z</time>
      </trkpt>
      <trkpt lat="43.23335" lon="6.40399">
        <ele>423</ele>
        <time>2019-11-06T09:13:42.704Z</time>
      </trkpt>
      <trkpt lat="43.23301" lon="6.40523">
        <ele>424</ele>
        <time>2019-11-06T09:15:51.221Z</time>
      </trkpt>
      <trkpt lat="43.23329" lon="6.40679">
        <ele>440</ele>
        <time>2019-11-06T09:18:27.159Z</time>
      </trkpt>
      <trkpt lat="43.23394" lon="6.40754">
        <ele>442</ele>
        <time>2019-11-06T09:20:20.294Z</time>
      </trkpt>
      <trkpt lat="43.23428" lon="6.40815">
        <ele>437</ele>
        <time>2019-11-06T09:21:34.577Z</time>
      </trkpt>
      <trkpt lat="43.23397" lon="6.40911">
        <ele>425</ele>
        <time>2019-11-06T09:23:16.706Z</time>
      </trkpt>
      <trkpt lat="43.23354" lon="6.40923">
        <ele>428</ele>
        <time>2019-11-06T09:24:15.585Z</time>
      </trkpt>
      <trkpt lat="43.23282" lon="6.40854">
        <ele>446</ele>
        <time>2019-11-06T09:26:12.685Z</time>
      </trkpt>
      <trkpt lat="43.2323" lon="6.40758">
        <ele>452</ele>
        <time>2019-11-06T09:28:09.467Z</time>
      </trkpt>
      <trkpt lat="43.2312" lon="6.40673">
        <ele>447</ele>
        <time>2019-11-06T09:30:56.877Z</time>
      </trkpt>
      <trkpt lat="43.2307" lon="6.4063">
        <ele>448</ele>
        <time>2019-11-06T09:32:15.984Z</time>
      </trkpt>
      <trkpt lat="43.23016" lon="6.40512">
        <ele>461</ele>
        <time>2019-11-06T09:34:31.181Z</time>
      </trkpt>
      <trkpt lat="43.22986" lon="6.40544">
        <ele>452</ele>
        <time>2019-11-06T09:35:22.157Z</time>
      </trkpt>
      <trkpt lat="43.2296" lon="6.40689">
        <ele>437</ele>
        <time>2019-11-06T09:37:48.042Z</time>
      </trkpt>
      <trkpt lat="43.22885" lon="6.40653">
        <ele>453</ele>
        <time>2019-11-06T09:39:34.225Z</time>
      </trkpt>
      <trkpt lat="43.22774" lon="6.40612">
        <ele>451</ele>
        <time>2019-11-06T09:42:07.635Z</time>
      </trkpt>
      <trkpt lat="43.22673" lon="6.40601">
        <ele>467</ele>
        <time>2019-11-06T09:44:22.544Z</time>
      </trkpt>
      <trkpt lat="43.22682" lon="6.40842">
        <ele>478</ele>
        <time>2019-11-06T09:48:16.724Z</time>
      </trkpt>
      <trkpt lat="43.22684" lon="6.40901">
        <ele>470</ele>
        <time>2019-11-06T09:49:13.784Z</time>
      </trkpt>
      <trkpt lat="43.22613" lon="6.40892">
        <ele>481</ele>
        <time>2019-11-06T09:50:49.742Z</time>
      </trkpt>
      <trkpt lat="43.22512" lon="6.40873">
        <ele>490</ele>
        <time>2019-11-06T09:53:05.142Z</time>
      </trkpt>
      <trkpt lat="43.22479" lon="6.40809">
        <ele>499</ele>
        <time>2019-11-06T09:54:21.730Z</time>
      </trkpt>
      <trkpt lat="43.22429" lon="6.40809">
        <ele>498</ele>
        <time>2019-11-06T09:55:27.738Z</time>
      </trkpt>
      <trkpt lat="43.22443" lon="6.40684">
        <ele>506</ele>
        <time>2019-11-06T09:57:30.780Z</time>
      </trkpt>
      <trkpt lat="43.22388" lon="6.4058">
        <ele>503.1</ele>
      </trkpt>
      <trkpt lat="43.22371" lon="6.40495">
        <ele>504.4</ele>
      </trkpt>
      <trkpt lat="43.22405" lon="6.40404">
        <ele>512.3</ele>
      </trkpt>
      <trkpt lat="43.2238" lon="6.40382">
        <ele>509</ele>
      </trkpt>
      <trkpt lat="43.22376" lon="6.40345">
        <ele>509</ele>
      </trkpt>
      <trkpt lat="43.22395" lon="6.40298">
        <ele>511</ele>
      </trkpt>
      <trkpt lat="43.22411" lon="6.40245">
        <ele>518.4</ele>
      </trkpt>
      <trkpt lat="43.22389" lon="6.40128">
        <ele>515.9</ele>
      </trkpt>
      <trkpt lat="43.22382" lon="6.39983">
        <ele>522.3</ele>
      </trkpt>
      <trkpt lat="43.22385" lon="6.39904">
        <ele>519.8</ele>
      </trkpt>
      <trkpt lat="43.22411" lon="6.39879">
        <ele>521.6</ele>
      </trkpt>
      <trkpt lat="43.22424" lon="6.39833">
        <ele>530</ele>
      </trkpt>
      <trkpt lat="43.22471" lon="6.39816">
        <ele>540.8</ele>
      </trkpt>
      <trkpt lat="43.22432" lon="6.39748">
        <ele>536.1</ele>
      </trkpt>
      <trkpt lat="43.22394" lon="6.39689">
        <ele>526</ele>
      </trkpt>
      <trkpt lat="43.22355" lon="6.39661">
        <ele>527.5</ele>
      </trkpt>
      <trkpt lat="43.22344" lon="6.39607">
        <ele>532.5</ele>
      </trkpt>
      <trkpt lat="43.22272" lon="6.39377">
        <ele>529</ele>
        <time>2019-11-06T10:22:06.738Z</time>
      </trkpt>
      <trkpt lat="43.22214" lon="6.39245">
        <ele>522.8</ele>
      </trkpt>
      <trkpt lat="43.22227" lon="6.39237">
        <ele>522.5</ele>
      </trkpt>
      <trkpt lat="43.22292" lon="6.39188">
        <ele>525.3</ele>
        <time>2019-11-06T11:00:56.433Z</time>
      </trkpt>
      <trkpt lat="43.22335" lon="6.39165">
        <ele>528.8</ele>
        <time>2019-11-06T11:01:57.657Z</time>
      </trkpt>
      <trkpt lat="43.22361" lon="6.39061">
        <ele>521.3</ele>
        <time>2019-11-06T11:03:44.776Z</time>
      </trkpt>
      <trkpt lat="43.22361" lon="6.39029">
        <ele>519.1</ele>
        <time>2019-11-06T11:04:15.666Z</time>
      </trkpt>
      <trkpt lat="43.22359" lon="6.38996">
        <ele>506.8</ele>
        <time>2019-11-06T11:04:47.568Z</time>
      </trkpt>
      <trkpt lat="43.22393" lon="6.38934">
        <ele>508.7</ele>
        <time>2019-11-06T11:06:03.489Z</time>
      </trkpt>
      <trkpt lat="43.22427" lon="6.38915">
        <ele>509.2</ele>
        <time>2019-11-06T11:06:51.552Z</time>
      </trkpt>
      <trkpt lat="43.22461" lon="6.38912">
        <ele>507.3</ele>
        <time>2019-11-06T11:07:37.947Z</time>
      </trkpt>
      <trkpt lat="43.22507" lon="6.38938">
        <ele>518.5</ele>
        <time>2019-11-06T11:08:43.891Z</time>
      </trkpt>
      <trkpt lat="43.2255" lon="6.38956">
        <ele>517.7</ele>
        <time>2019-11-06T11:09:44.518Z</time>
      </trkpt>
      <trkpt lat="43.22568" lon="6.38989">
        <ele>518.7</ele>
        <time>2019-11-06T11:10:24.112Z</time>
      </trkpt>
      <trkpt lat="43.2259" lon="6.39037">
        <ele>519.6</ele>
        <time>2019-11-06T11:11:19.559Z</time>
      </trkpt>
      <trkpt lat="43.22594" lon="6.39093">
        <ele>534.5</ele>
        <time>2019-11-06T11:12:13.414Z</time>
      </trkpt>
      <trkpt lat="43.2261" lon="6.39123">
        <ele>536.5</ele>
        <time>2019-11-06T11:12:50.469Z</time>
      </trkpt>
      <trkpt lat="43.22627" lon="6.39113">
        <ele>534.2</ele>
        <time>2019-11-06T11:13:14.592Z</time>
      </trkpt>
      <trkpt lat="43.22669" lon="6.39094">
        <ele>521.3</ele>
        <time>2019-11-06T11:14:13.379Z</time>
      </trkpt>
      <trkpt lat="43.22737" lon="6.39128">
        <ele>526.4</ele>
        <time>2019-11-06T11:15:50.429Z</time>
      </trkpt>
      <trkpt lat="43.22797" lon="6.39104">
        <ele>521.1</ele>
        <time>2019-11-06T11:17:13.512Z</time>
      </trkpt>
      <trkpt lat="43.22861" lon="6.39094">
        <ele>516.5</ele>
        <time>2019-11-06T11:18:39.528Z</time>
      </trkpt>
      <trkpt lat="43.22921" lon="6.39131">
        <ele>514.3</ele>
        <time>2019-11-06T11:20:06.699Z</time>
      </trkpt>
      <trkpt lat="43.22976" lon="6.39143">
        <ele>513.5</ele>
        <time>2019-11-06T11:21:21.394Z</time>
      </trkpt>
      <trkpt lat="43.23033" lon="6.39155">
        <ele>513.8</ele>
        <time>2019-11-06T11:22:39.003Z</time>
      </trkpt>
      <trkpt lat="43.23074" lon="6.39158">
        <ele>515</ele>
      </trkpt>
      <trkpt lat="43.23086" lon="6.39164">
        <ele>516.4</ele>
      </trkpt>
      <trkpt lat="43.23102" lon="6.39227">
        <ele>513.5</ele>
      </trkpt>
      <trkpt lat="43.23133" lon="6.39323">
        <ele>507.6</ele>
      </trkpt>
      <trkpt lat="43.23161" lon="6.39325">
        <ele>502</ele>
      </trkpt>
      <trkpt lat="43.23163" lon="6.39357">
        <ele>506</ele>
      </trkpt>
      <trkpt lat="43.23214" lon="6.39391">
        <ele>478</ele>
        <time>2019-11-06T11:28:36.611Z</time>
      </trkpt>
      <trkpt lat="43.23221" lon="6.39437">
        <ele>482</ele>
        <time>2019-11-06T11:29:22.983Z</time>
      </trkpt>
      <trkpt lat="43.23257" lon="6.39443">
        <ele>474</ele>
        <time>2019-11-06T11:30:11.031Z</time>
      </trkpt>
      <trkpt lat="43.2332" lon="6.39497">
        <ele>462</ele>
        <time>2019-11-06T11:31:50.206Z</time>
      </trkpt>
      <trkpt lat="43.23385" lon="6.3963">
        <ele>442</ele>
        <time>2019-11-06T11:34:26.282Z</time>
      </trkpt>
      <trkpt lat="43.23392" lon="6.39694">
        <ele>463.9</ele>
      </trkpt>
      <trkpt lat="43.23429" lon="6.39717">
        <ele>425</ele>
        <time>2019-11-06T11:36:11.186Z</time>
      </trkpt>
      <trkpt lat="43.23445" lon="6.39825">
        <ele>416</ele>
        <time>2019-11-06T11:37:59.134Z</time>
      </trkpt>
      <trkpt lat="43.23429" lon="6.39892">
        <ele>416</ele>
        <time>2019-11-06T11:39:07.264Z</time>
      </trkpt>
      <trkpt lat="43.23425" lon="6.39927">
        <ele>440</ele>
      </trkpt>
      <trkpt lat="43.23431" lon="6.39941">
        <ele>425</ele>
        <time>2019-11-06T11:39:55.423Z</time>
      </trkpt>
      <trkpt lat="43.23439" lon="6.3997">
        <ele>436</ele>
      </trkpt>
      <trkpt lat="43.23466" lon="6.39997">
        <ele>429</ele>
      </trkpt>
      <trkpt lat="43.23463" lon="6.39978">
        <ele>430.3</ele>
      </trkpt>
      <trkpt lat="43.23444" lon="6.39942">
        <ele>433.8</ele>
      </trkpt>
      <trkpt lat="43.23444" lon="6.3991">
        <ele>434.4</ele>
      </trkpt>
      <trkpt lat="43.23477" lon="6.39866">
        <ele>427.9</ele>
      </trkpt>
      <trkpt lat="43.23467" lon="6.398">
        <ele>438</ele>
      </trkpt>
      <trkpt lat="43.23478" lon="6.39775">
        <ele>439.2</ele>
      </trkpt>
      <trkpt lat="43.23504" lon="6.39797">
        <ele>431.8</ele>
      </trkpt>
      <trkpt lat="43.23575" lon="6.39867">
        <ele>414.4</ele>
      </trkpt>
      <trkpt lat="43.23596" lon="6.39864">
        <ele>406.9</ele>
      </trkpt>
      <trkpt lat="43.2365" lon="6.39791">
        <ele>426.6</ele>
      </trkpt>
      <trkpt lat="43.23694" lon="6.39754">
        <ele>417.8</ele>
      </trkpt>
      <trkpt lat="43.2373" lon="6.397">
        <ele>433.5</ele>
      </trkpt>
      <trkpt lat="43.23784" lon="6.3969">
        <ele>416</ele>
      </trkpt>
      <trkpt lat="43.23781" lon="6.39653">
        <ele>424.2</ele>
      </trkpt>
    </trkseg>
  </trk>
</gpx>